Pagrindinis puslapis
METAR-TAF:

METAR-TAF

Oro uostai :

Veliko Tirnovas, Bulgarija

platuma: 43-09N, ilguma: 025-36E, Aukštis: 87 m

Dabartinis oras

Ataskaita buvo paskelbta 38 minutes, ne 03:30 UTC
Ramus vėjas
Temperatūra -3°C
Drėgmė 100%
Slėgis 1020 hPa
Matomumas: 8000 m

METAR: LBGO 180330Z AUTO 00000KT 8000 NCD M03/M03 Q1020

Laikas: 06:08 (04:08 UTC)

Prognozė

Ataskaita buvo paskelbta 5 valandos ir 8 minutes, ne 23:00 UTC
Prognozė galioja nuo 18 metu 00 UTC su 18 metu 24 UTC
Vėjas 4 kt nuo kintamojo kryptimis
Matomumas: 5000 m
rūkana
Laikinai
nuo 18 metu 01 UTC su 18 metu 06 UTC
Matomumas: 1200 m
Išsisklaidę debesys ne aukštis 1000 ft
rūkana
Tikimybė 40%
nuo 18 metu 02 UTC su 18 metu 05 UTC
Matomumas: 0400 m
Išsisklaidę debesys ne aukštis 300 ft
įšaldymas rūko
Tapsmas
nuo 18 metu 08 UTC su 18 metu 10 UTC
Vėjas 10 kt iš Rytų

TAF: LBGO 172300Z 1800/1824 VRB04KT 5000 BR NSC TEMPO 1801/1806 1200 BR SCT010 PROB40 1802/1805 0400 FZFG SCT003 BECMG 1808/1810 09010KT

Orai ataskaitas ir orų prognozės (METAR, TAF).

turimą stotys yra geltonos ir raudonos taškus žemėlapyje.

Perkelti pele per norėdami pamatyti stoties vardą.

Tada spustelėkite, norėdami matyti oro stebėjimo ir prognozės.

Norėdami pakeisti žemėlapį: spustelėkite ant žalios mygtukų su juodo kryžiaus žemyn,; žalią mygtuką su brūkšneliu, jei norite nutolinti; arba žalių rodyklių gretimoms žemėlapius.


METAR-TAF: